createdAt,value
2023-02-22T00:01:47.419Z,101569.41
2023-02-22T00:04:16.057Z,101566.75
2023-02-22T00:06:42.599Z,101565.97
2023-02-22T00:09:10.397Z,101567.03
2023-02-22T00:11:38.597Z,101564.47
2023-02-22T00:14:05.806Z,101567.97
2023-02-22T00:16:32.398Z,101565.47
2023-02-22T00:18:59.018Z,101565.59
2023-02-22T00:21:25.687Z,101570.72
2023-02-22T00:23:54.694Z,101558.53
2023-02-22T00:26:23.481Z,101562.16
2023-02-22T00:28:51.207Z,101571.00
2023-02-22T00:31:18.896Z,101565.81
2023-02-22T00:33:45.801Z,101564.13
2023-02-22T00:36:13.616Z,101563.22
2023-02-22T00:38:41.229Z,101566.84
2023-02-22T00:41:07.795Z,101565.13
2023-02-22T00:43:34.834Z,101556.41
2023-02-22T00:46:01.454Z,101556.38
2023-02-22T00:48:28.558Z,101544.06
2023-02-22T00:50:55.495Z,101551.06
2023-02-22T00:53:24.307Z,101548.47
2023-02-22T00:55:50.848Z,101552.91
2023-02-22T00:58:18.749Z,101557.19
2023-02-22T01:00:45.623Z,101557.19
2023-02-22T01:03:15.054Z,101553.78
2023-02-22T01:05:41.954Z,101552.84
2023-02-22T01:08:12.198Z,101551.94
2023-02-22T01:10:39.546Z,101548.50
2023-02-22T01:13:09.118Z,101548.47
2023-02-22T01:15:37.651Z,101540.66
2023-02-22T01:18:05.267Z,101546.75
2023-02-22T01:20:32.505Z,101539.75
2023-02-22T01:23:01.298Z,101539.78
2023-02-22T01:25:28.656Z,101544.16
2023-02-22T01:27:56.807Z,101526.72
2023-02-22T01:30:25.760Z,101525.06
2023-02-22T01:32:52.992Z,101523.38
2023-02-22T01:35:23.130Z,101525.13
2023-02-22T01:37:49.653Z,101514.69
2023-02-22T01:40:34.641Z,101521.69
2023-02-22T01:43:15.532Z,101511.34
2023-02-22T01:46:08.462Z,101510.50
2023-02-22T01:48:47.417Z,101516.81
2023-02-22T01:51:20.783Z,101511.59
2023-02-22T01:54:03.793Z,101509.88
2023-02-22T01:56:33.040Z,101524.81
2023-02-22T01:59:02.833Z,101512.53
2023-02-22T02:01:29.677Z,101503.75
2023-02-22T02:04:00.065Z,101503.78
2023-02-22T02:06:28.560Z,101495.88
2023-02-22T02:09:05.088Z,101486.25
2023-02-22T02:11:32.507Z,101495.00
2023-02-22T02:13:59.729Z,101488.03
2023-02-22T02:16:35.675Z,101481.94
2023-02-22T02:19:03.370Z,101485.38
2023-02-22T02:22:04.035Z,101479.31
2023-02-22T02:24:50.395Z,101474.88
2023-02-22T02:27:25.871Z,101473.13
2023-02-22T02:30:13.289Z,101467.06
2023-02-22T02:32:43.292Z,101471.41
2023-02-22T02:35:34.525Z,101457.41
2023-02-22T02:38:22.964Z,101461.69
2023-02-22T02:40:58.722Z,101459.97
2023-02-22T02:43:43.597Z,101459.94
2023-02-22T02:46:21.474Z,101443.41
2023-02-22T02:48:57.393Z,101442.50
2023-02-22T02:51:28.028Z,101439.81
2023-02-22T02:53:54.886Z,101438.09
2023-02-22T02:56:23.503Z,101435.50
2023-02-22T02:58:54.143Z,101425.06
2023-02-22T03:01:44.799Z,101430.38
2023-02-22T03:04:20.517Z,101428.59
2023-02-22T03:06:57.047Z,101423.41
2023-02-22T03:09:35.314Z,101402.50
2023-02-22T03:12:39.931Z,101406.88
2023-02-22T03:15:22.031Z,101395.50
2023-02-22T03:17:56.965Z,101397.41
2023-02-22T03:20:43.516Z,101395.72
2023-02-22T03:23:21.041Z,101393.97
2023-02-22T03:25:52.222Z,101394.91
2023-02-22T03:28:20.472Z,101387.16
2023-02-22T03:30:50.695Z,101388.97
2023-02-22T03:33:39.795Z,101388.16
2023-02-22T03:36:16.225Z,101383.88
2023-02-22T03:38:44.361Z,101380.44
2023-02-22T03:41:11.679Z,101372.59
2023-02-22T03:43:41.722Z,101368.13
2023-02-22T03:46:09.658Z,101361.97
2023-02-22T03:48:44.147Z,101362.91
2023-02-22T03:51:16.704Z,101363.81
2023-02-22T03:53:48.179Z,101349.84
2023-02-22T03:56:20.259Z,101349.84
2023-02-22T03:58:50.233Z,101344.63
2023-02-22T04:01:17.551Z,101335.84
2023-02-22T04:03:44.618Z,101341.06
2023-02-22T04:06:11.633Z,101334.25
2023-02-22T04:08:38.167Z,101337.69
2023-02-22T04:11:04.785Z,101326.28
2023-02-22T04:13:31.351Z,101333.19
2023-02-22T04:15:57.986Z,101330.59
2023-02-22T04:18:24.504Z,101328.06
2023-02-22T04:20:51.750Z,101330.69
2023-02-22T04:23:18.367Z,101321.06
2023-02-22T04:25:44.862Z,101321.06
2023-02-22T04:28:11.657Z,101321.03
2023-02-22T04:30:38.259Z,101319.28
2023-02-22T04:33:04.839Z,101316.66
2023-02-22T04:35:33.064Z,101316.66
2023-02-22T04:38:01.614Z,101312.22
2023-02-22T04:40:28.156Z,101303.53
2023-02-22T04:42:54.817Z,101307.91
2023-02-22T04:45:21.445Z,101309.66
2023-02-22T04:47:48.005Z,101314.81
2023-02-22T04:50:14.847Z,101304.44
2023-02-22T04:52:41.390Z,101315.75
2023-02-22T04:55:08.368Z,101300.06
2023-02-22T04:57:34.888Z,101311.41
2023-02-22T05:00:01.828Z,101311.38
2023-02-22T05:02:28.550Z,101301.78
2023-02-22T05:04:55.223Z,101300.88
2023-02-22T05:07:21.938Z,101299.22
2023-02-22T05:09:48.466Z,101296.50
2023-02-22T05:12:15.268Z,101285.22
2023-02-22T05:14:42.360Z,101287.78
2023-02-22T05:17:09.023Z,101294.69
2023-02-22T05:19:35.670Z,101289.41
2023-02-22T05:22:02.237Z,101293.72
2023-02-22T05:24:28.805Z,101291.22
2023-02-22T05:26:55.392Z,101284.22
2023-02-22T05:29:21.878Z,101279.91
2023-02-22T05:31:48.508Z,101280.78
2023-02-22T05:34:15.790Z,101276.31
2023-02-22T05:36:42.669Z,101271.13
2023-02-22T05:39:09.181Z,101262.38
2023-02-22T05:41:35.728Z,101258.88
2023-02-22T05:44:03.058Z,101251.06
2023-02-22T05:46:29.639Z,101250.22
2023-02-22T05:48:56.194Z,101238.94
2023-02-22T05:51:23.272Z,101232.75
2023-02-22T05:53:52.169Z,101229.31
2023-02-22T05:56:26.470Z,101226.66
2023-02-22T05:58:53.333Z,101221.41
2023-02-22T06:01:20.759Z,101224.00
2023-02-22T06:03:49.673Z,101218.75
2023-02-22T06:06:16.509Z,101225.69
2023-02-22T06:08:43.332Z,101224.75
2023-02-22T06:11:10.417Z,101216.91
2023-02-22T06:13:37.022Z,101225.75
2023-02-22T06:16:04.421Z,101228.38
2023-02-22T06:18:31.308Z,101231.00
2023-02-22T06:20:59.184Z,101234.63
2023-02-22T06:23:26.865Z,101233.75
2023-02-22T06:25:53.416Z,101241.47
2023-02-22T06:28:19.914Z,101228.41
2023-02-22T06:30:46.480Z,101209.22
2023-02-22T06:33:13.041Z,101204.00
2023-02-22T06:35:39.639Z,101218.81
2023-02-22T06:38:06.276Z,101225.75
2023-02-22T06:40:32.854Z,101224.88
2023-02-22T06:43:00.001Z,101227.50
2023-02-22T06:45:26.731Z,101224.09
2023-02-22T06:47:53.322Z,101230.13
2023-02-22T06:50:24.182Z,101234.59
2023-02-22T06:52:53.056Z,101238.97
2023-02-22T06:55:25.526Z,101238.91
2023-02-22T06:57:52.347Z,101237.19
2023-02-22T07:00:20.782Z,101242.53
2023-02-22T07:02:50.855Z,101235.47
2023-02-22T07:05:20.106Z,101231.88
2023-02-22T07:07:48.029Z,101240.59
2023-02-22T07:10:41.172Z,101256.28
2023-02-22T07:13:08.725Z,101250.06
2023-02-22T07:15:35.855Z,101243.09
2023-02-22T07:18:02.443Z,101245.63
2023-02-22T07:20:30.409Z,101248.28
2023-02-22T07:22:56.935Z,101254.28
2023-02-22T07:25:23.846Z,101265.66
2023-02-22T07:27:52.381Z,101263.88
2023-02-22T07:30:20.707Z,101268.25
2023-02-22T07:32:47.315Z,101260.38
2023-02-22T07:35:36.940Z,101264.66
2023-02-22T07:38:08.397Z,101256.88
2023-02-22T07:40:35.971Z,101253.41
2023-02-22T07:43:15.150Z,101250.69
2023-02-22T07:45:42.587Z,101251.56
2023-02-22T07:48:09.324Z,101238.44
2023-02-22T07:50:36.152Z,101245.38
2023-02-22T07:53:05.360Z,101230.72
2023-02-22T07:55:33.135Z,101226.38
2023-02-22T07:58:02.040Z,101234.19
2023-02-22T08:00:33.780Z,101233.22
2023-02-22T08:03:02.284Z,101233.19
2023-02-22T08:05:30.182Z,101229.59
2023-02-22T08:07:56.820Z,101220.94
2023-02-22T08:10:25.069Z,101214.84
2023-02-22T08:12:52.152Z,101213.88
2023-02-22T08:15:21.639Z,101223.41
2023-02-22T08:17:48.238Z,101217.25
2023-02-22T08:20:14.839Z,101211.00
2023-02-22T08:22:44.510Z,101202.19
2023-02-22T08:25:12.289Z,101191.63
2023-02-22T08:27:39.258Z,101193.28
2023-02-22T08:30:06.352Z,101189.66
2023-02-22T08:32:33.531Z,101185.16
2023-02-22T08:35:01.253Z,101178.88
2023-02-22T08:37:28.122Z,101177.72
2023-02-22T08:39:56.153Z,101177.66
2023-02-22T08:42:22.891Z,101174.09
2023-02-22T08:44:49.594Z,101178.31
2023-02-22T08:47:16.105Z,101180.94
2023-02-22T08:49:42.625Z,101166.03
2023-02-22T08:52:09.447Z,101158.03
2023-02-22T08:54:35.966Z,101160.41
2023-02-22T08:57:02.502Z,101163.63
2023-02-22T08:59:29.197Z,101171.28
2023-02-22T09:01:55.761Z,101165.81
2023-02-22T09:04:22.357Z,101164.56
2023-02-22T09:06:52.014Z,101167.44
2023-02-22T09:09:21.390Z,101177.44
2023-02-22T09:11:50.990Z,101187.22
2023-02-22T09:14:19.297Z,101199.34
2023-02-22T09:16:45.959Z,101207.50
2023-02-22T09:19:12.510Z,101197.75
2023-02-22T09:21:40.335Z,101198.25
2023-02-22T09:24:08.777Z,101195.47
2023-02-22T09:26:42.756Z,101203.31
2023-02-22T09:29:12.658Z,101210.44
2023-02-22T09:31:40.486Z,101213.13
2023-02-22T09:34:14.094Z,101231.19
2023-02-22T09:36:43.987Z,101214.00
2023-02-22T09:39:11.354Z,101208.84
2023-02-22T09:42:09.439Z,101194.94
2023-02-22T09:44:43.910Z,101189.06
2023-02-22T09:47:18.312Z,101175.78
2023-02-22T09:49:57.487Z,101188.28
2023-02-22T09:52:32.441Z,101186.38
2023-02-22T09:55:23.298Z,101190.88
2023-02-22T09:57:51.634Z,101206.78
2023-02-22T10:00:22.798Z,101198.03
2023-02-22T10:03:08.876Z,101203.22
2023-02-22T10:05:41.890Z,101205.75
2023-02-22T10:08:14.268Z,101207.28
2023-02-22T10:10:46.050Z,101218.72
2023-02-22T10:13:48.659Z,101210.72
2023-02-22T10:16:27.043Z,101212.44
2023-02-22T10:19:31.636Z,101205.22
2023-02-22T10:22:19.097Z,101199.50
2023-02-22T10:24:57.198Z,101194.84
2023-02-22T10:28:00.374Z,101201.59
2023-02-22T10:30:30.898Z,101194.25
2023-02-22T10:33:17.007Z,101193.44
2023-02-22T10:35:46.853Z,101176.34
2023-02-22T10:38:18.220Z,101177.31
2023-02-22T10:41:23.184Z,101183.22
2023-02-22T10:43:50.422Z,101176.09
2023-02-22T10:46:19.519Z,101166.53
2023-02-22T10:48:50.835Z,101175.47
2023-02-22T10:51:17.430Z,101175.53
2023-02-22T10:53:44.406Z,101171.47
2023-02-22T10:56:23.113Z,101164.25
2023-02-22T10:58:59.595Z,101158.41
2023-02-22T11:01:32.115Z,101158.19
2023-02-22T11:04:15.401Z,101159.34
2023-02-22T11:06:44.678Z,101150.38
2023-02-22T11:09:18.425Z,101152.88
2023-02-22T11:11:47.288Z,101157.88
2023-02-22T11:14:26.641Z,101153.84
2023-02-22T11:16:54.455Z,101147.56
2023-02-22T11:19:25.858Z,101154.66
2023-02-22T11:21:56.277Z,101144.03
2023-02-22T11:24:24.244Z,101142.31
2023-02-22T11:26:54.215Z,101142.66
2023-02-22T11:29:22.338Z,101142.47
2023-02-22T11:31:52.246Z,101137.97
2023-02-22T11:34:38.161Z,101133.94
2023-02-22T11:37:29.387Z,101136.50
2023-02-22T11:40:19.843Z,101132.19
2023-02-22T11:42:47.042Z,101129.69
2023-02-22T11:45:21.181Z,101132.59
2023-02-22T11:47:53.664Z,101127.31
2023-02-22T11:50:46.822Z,101126.56
2023-02-22T11:53:22.178Z,101124.16
2023-02-22T11:56:08.035Z,101113.56
2023-02-22T11:58:54.289Z,101112.09
2023-02-22T12:01:28.480Z,101114.03
2023-02-22T12:04:15.834Z,101114.41
2023-02-22T12:07:08.356Z,101111.59
2023-02-22T12:09:53.037Z,101112.31
2023-02-22T12:12:27.948Z,101113.16
2023-02-22T12:15:05.990Z,101113.72
2023-02-22T12:17:48.235Z,101115.59
2023-02-22T12:23:00.818Z,101119.94
2023-02-22T12:25:33.359Z,101122.41
2023-02-22T12:28:24.656Z,101115.13
2023-02-22T12:31:20.499Z,101128.94
2023-02-22T12:33:54.262Z,101119.16
2023-02-22T12:36:25.378Z,101118.06
2023-02-22T12:38:58.335Z,101117.69
2023-02-22T12:41:33.968Z,101120.38
2023-02-22T12:44:05.468Z,101123.88
2023-02-22T12:46:44.859Z,101120.97
2023-02-22T12:49:19.512Z,101125.41
2023-02-22T12:51:52.753Z,101121.41
2023-02-22T12:54:26.066Z,101115.88
2023-02-22T12:57:17.591Z,101115.16
2023-02-22T12:59:53.833Z,101114.25
2023-02-22T13:03:01.209Z,101112.41
2023-02-22T13:05:33.480Z,101115.91
2023-02-22T13:08:29.132Z,101119.94
2023-02-22T13:11:18.229Z,101117.06
2023-02-22T13:14:09.276Z,101107.50
2023-02-22T13:16:52.634Z,101110.63
2023-02-22T13:19:45.318Z,101101.84
2023-02-22T13:22:29.841Z,101110.66
2023-02-22T13:25:09.698Z,101110.72
2023-02-22T13:27:43.847Z,101108.75
2023-02-22T13:30:18.542Z,101106.00
2023-02-22T13:33:25.969Z,101114.31
2023-02-22T13:35:55.573Z,101111.22
2023-02-22T13:38:33.968Z,101118.06
2023-02-22T13:41:09.578Z,101112.78
2023-02-22T13:43:55.015Z,101109.28
2023-02-22T13:46:40.304Z,101107.19
2023-02-22T13:49:12.643Z,101113.84
2023-02-22T13:51:53.739Z,101113.16
2023-02-22T13:54:34.286Z,101111.22
2023-02-22T13:57:03.052Z,101113.09
2023-02-22T13:59:31.506Z,101115.72
2023-02-22T14:01:59.271Z,101117.41
2023-02-22T14:04:28.836Z,101108.06
2023-02-22T14:06:56.603Z,101112.25
2023-02-22T14:09:51.888Z,101117.13
2023-02-22T14:12:30.420Z,101118.75
2023-02-22T14:15:29.745Z,101122.00
2023-02-22T14:17:56.713Z,101125.38
2023-02-22T14:20:36.100Z,101131.09
2023-02-22T14:23:24.571Z,101139.97
2023-02-22T14:25:51.599Z,101134.19
2023-02-22T14:28:41.913Z,101142.13
2023-02-22T14:31:15.473Z,101144.78
2023-02-22T14:34:02.022Z,101133.53
2023-02-22T14:36:30.539Z,101142.41
2023-02-22T14:39:06.817Z,101145.97
2023-02-22T14:41:33.571Z,101150.63
2023-02-22T14:44:03.926Z,101146.44
2023-02-22T14:46:33.468Z,101155.91
2023-02-22T14:49:04.322Z,101154.41
2023-02-22T14:51:42.829Z,101158.78
2023-02-22T14:54:25.721Z,101168.22
2023-02-22T14:57:14.955Z,101167.19
2023-02-22T14:59:51.040Z,101157.53
2023-02-22T15:02:19.599Z,101157.72
2023-02-22T15:04:52.982Z,101164.13
2023-02-22T15:07:27.323Z,101160.81
2023-02-22T15:10:17.634Z,101159.34
2023-02-22T15:12:52.248Z,101162.81
2023-02-22T15:15:21.970Z,101173.66
2023-02-22T15:17:58.483Z,101169.41
2023-02-22T15:20:26.050Z,101170.53
2023-02-22T15:35:59.553Z,101187.69
2023-02-22T15:38:30.365Z,101183.56
2023-02-22T15:41:04.845Z,101186.94
2023-02-22T15:43:32.653Z,101185.47
2023-02-22T15:45:59.849Z,101189.13
2023-02-22T15:48:27.224Z,101186.81
2023-02-22T15:51:10.594Z,101194.13
2023-02-22T15:53:44.496Z,101188.91
2023-02-22T15:56:35.311Z,101191.75
2023-02-22T15:59:18.387Z,101191.75
2023-02-22T16:01:46.702Z,101194.44
2023-02-22T16:04:21.877Z,101191.91
2023-02-22T16:06:49.194Z,101187.50
2023-02-22T16:09:17.483Z,101187.53
2023-02-22T16:11:45.928Z,101185.91
2023-02-22T16:14:40.772Z,101182.31
2023-02-22T16:17:35.318Z,101182.38
2023-02-22T16:20:20.521Z,101189.13
2023-02-22T16:22:51.372Z,101194.53
2023-02-22T16:25:17.999Z,101197.13
2023-02-22T16:28:01.527Z,101198.97
2023-02-22T16:30:34.504Z,101193.66
2023-02-22T16:33:05.559Z,101199.72
2023-02-22T16:35:35.356Z,101200.41
2023-02-22T16:38:07.582Z,101198.81
2023-02-22T16:40:37.982Z,101203.19
2023-02-22T16:43:12.276Z,101201.50
2023-02-22T16:45:41.293Z,101205.75
2023-02-22T16:48:15.848Z,101211.09
2023-02-22T16:50:42.461Z,101204.13
2023-02-22T16:53:09.155Z,101211.97
2023-02-22T16:55:36.653Z,101214.72
2023-02-22T16:58:04.206Z,101205.97
2023-02-22T17:00:34.621Z,101209.59
2023-02-22T17:03:03.957Z,101217.38
2023-02-22T17:05:31.901Z,101218.28
2023-02-22T17:07:58.549Z,101218.94
2023-02-22T17:10:26.114Z,101217.19
2023-02-22T17:12:53.389Z,101219.00
2023-02-22T17:15:28.221Z,101219.84
2023-02-22T17:17:55.902Z,101215.41
2023-02-22T17:20:32.659Z,101222.56
2023-02-22T17:23:01.184Z,101219.88
2023-02-22T17:25:31.361Z,101219.88
2023-02-22T17:27:57.881Z,101223.50
2023-02-22T17:30:24.653Z,101226.25
2023-02-22T17:32:52.264Z,101224.50
2023-02-22T17:35:20.632Z,101228.88
2023-02-22T17:37:48.043Z,101233.22
2023-02-22T17:40:14.944Z,101243.72
2023-02-22T17:42:42.891Z,101239.38
2023-02-22T17:45:10.384Z,101243.84
2023-02-22T17:47:36.989Z,101245.72
2023-02-22T17:50:03.524Z,101244.69
2023-02-22T17:52:30.241Z,101248.38
2023-02-22T17:54:56.797Z,101249.22
2023-02-22T17:57:23.343Z,101253.59
2023-02-22T17:59:50.262Z,101255.13
2023-02-22T18:02:16.872Z,101250.91
2023-02-22T18:04:43.470Z,101256.25
2023-02-22T18:07:09.976Z,101257.31
2023-02-22T18:09:36.662Z,101264.38
2023-02-22T18:12:03.318Z,101266.28
2023-02-22T18:14:29.882Z,101262.72
2023-02-22T18:16:56.406Z,101262.00
2023-02-22T18:19:23.433Z,101262.13
2023-02-22T18:21:50.137Z,101257.81
2023-02-22T18:24:17.362Z,101263.09
2023-02-22T18:26:43.924Z,101261.34
2023-02-22T18:29:12.336Z,101267.47
2023-02-22T18:31:38.902Z,101276.31
2023-02-22T18:34:05.476Z,101274.56
2023-02-22T18:36:32.455Z,101277.34
2023-02-22T18:38:59.038Z,101275.41
2023-02-22T18:41:25.796Z,101283.41
2023-02-22T18:43:55.172Z,101276.31
2023-02-22T18:46:23.460Z,101276.97
2023-02-22T18:48:53.275Z,101269.16
2023-02-22T18:51:19.854Z,101270.25
2023-02-22T18:53:48.001Z,101266.81
2023-02-22T18:56:17.841Z,101276.53
2023-02-22T18:58:45.046Z,101280.91
2023-02-22T19:01:17.206Z,101273.78
2023-02-22T19:03:47.133Z,101268.50
2023-02-22T19:06:14.537Z,101267.63
2023-02-22T19:08:42.875Z,101280.03
2023-02-22T19:11:21.644Z,101270.38
2023-02-22T19:13:50.000Z,101271.28
2023-02-22T19:16:21.812Z,101263.34
2023-02-22T19:18:50.989Z,101271.13
2023-02-22T19:21:18.307Z,101272.06
2023-02-22T19:23:48.762Z,101276.44
2023-02-22T19:26:20.846Z,101273.88
2023-02-22T19:28:48.252Z,101277.34
2023-02-22T19:31:21.458Z,101278.38
2023-02-22T19:33:52.127Z,101277.44
2023-02-22T19:36:19.910Z,101272.34
2023-02-22T19:38:46.737Z,101272.34
2023-02-22T19:41:17.744Z,101275.88
2023-02-22T19:43:45.505Z,101275.06
2023-02-22T19:46:12.513Z,101275.03
2023-02-22T19:48:39.348Z,101277.72
2023-02-22T19:51:08.522Z,101288.22
2023-02-22T19:53:35.668Z,101291.00
2023-02-22T19:56:09.920Z,101293.59
2023-02-22T19:58:37.969Z,101292.66
2023-02-22T20:01:15.353Z,101300.72
2023-02-22T20:03:42.781Z,101296.41
2023-02-22T20:06:11.523Z,101312.41
2023-02-22T20:08:42.341Z,101301.97
2023-02-22T20:11:10.520Z,101308.97
2023-02-22T20:13:38.113Z,101308.19
2023-02-22T20:16:05.032Z,101311.59
2023-02-22T20:18:31.560Z,101303.72
2023-02-22T20:20:58.057Z,101299.34
2023-02-22T20:23:24.650Z,101314.22
2023-02-22T20:25:55.579Z,101313.38
2023-02-22T20:28:23.281Z,101314.19
2023-02-22T20:30:51.572Z,101309.84
2023-02-22T20:33:19.428Z,101308.97
2023-02-22T20:35:46.758Z,101311.50
2023-02-22T20:38:14.438Z,101301.91
2023-02-22T20:40:42.314Z,101308.97
2023-02-22T20:43:09.711Z,101308.06
2023-02-22T20:45:37.568Z,101309.81
2023-02-22T20:48:04.429Z,101313.34
2023-02-22T20:50:31.775Z,101313.34
2023-02-22T20:52:58.865Z,101315.06
2023-02-22T20:55:25.860Z,101318.56
2023-02-22T20:57:52.458Z,101322.97
2023-02-22T21:00:19.130Z,101319.50
2023-02-22T21:02:46.769Z,101317.84
2023-02-22T21:05:13.904Z,101316.91
2023-02-22T21:07:40.764Z,101315.22
2023-02-22T21:10:07.433Z,101313.50
2023-02-22T21:12:35.011Z,101322.25
2023-02-22T21:15:01.553Z,101314.34
2023-02-22T21:17:30.867Z,101312.53
2023-02-22T21:19:58.384Z,101313.50
2023-02-22T21:22:25.287Z,101318.72
2023-02-22T21:24:52.129Z,101316.94
2023-02-22T21:27:18.900Z,101324.03
2023-02-22T21:29:45.474Z,101320.50
2023-02-22T21:32:13.759Z,101319.69
2023-02-22T21:34:40.532Z,101324.84
2023-02-22T21:37:08.336Z,101322.28
2023-02-22T21:39:35.474Z,101324.91
2023-02-22T21:42:02.311Z,101330.25
2023-02-22T21:44:29.655Z,101328.53
2023-02-22T21:46:56.398Z,101329.34
2023-02-22T21:49:23.282Z,101323.25
2023-02-22T21:51:51.609Z,101325.03
2023-02-22T21:54:18.667Z,101318.13
2023-02-22T21:56:45.244Z,101325.09
2023-02-22T21:59:14.753Z,101329.50
2023-02-22T22:01:49.945Z,101331.28
2023-02-22T22:04:21.563Z,101330.44
2023-02-22T22:06:50.874Z,101334.00
2023-02-22T22:09:21.916Z,101334.84
2023-02-22T22:11:51.036Z,101333.88
2023-02-22T22:14:23.386Z,101325.16
2023-02-22T22:16:51.673Z,101327.72
2023-02-22T22:19:18.461Z,101324.28
2023-02-22T22:21:46.852Z,101330.47
2023-02-22T22:24:13.451Z,101333.88
2023-02-22T22:26:40.313Z,101325.81
2023-02-22T22:29:10.396Z,101333.81
2023-02-22T22:31:37.576Z,101331.13
2023-02-22T22:34:04.153Z,101338.13
2023-02-22T22:36:30.639Z,101334.59
2023-02-22T22:39:00.964Z,101334.56
2023-02-22T22:41:30.280Z,101327.56
2023-02-22T22:43:56.801Z,101328.41
2023-02-22T22:46:23.475Z,101329.28
2023-02-22T22:48:50.060Z,101326.66
2023-02-22T22:51:20.015Z,101334.56
2023-02-22T22:53:48.164Z,101324.88
2023-02-22T22:56:18.587Z,101325.69
2023-02-22T22:58:53.897Z,101334.56
2023-02-22T23:01:27.034Z,101328.44
2023-02-22T23:04:02.492Z,101327.59
2023-02-22T23:06:33.126Z,101331.03
2023-02-22T23:09:11.816Z,101331.91
2023-02-22T23:11:46.175Z,101338.94
2023-02-22T23:14:14.959Z,101339.81
2023-02-22T23:16:42.661Z,101335.44
2023-02-22T23:19:09.323Z,101338.88
2023-02-22T23:21:36.262Z,101340.69
2023-02-22T23:24:06.361Z,101339.84
2023-02-22T23:26:34.042Z,101339.00
2023-02-22T23:29:01.000Z,101338.97
2023-02-22T23:31:32.139Z,101334.75
2023-02-22T23:33:59.132Z,101335.59
2023-02-22T23:36:26.929Z,101337.31
2023-02-22T23:38:54.268Z,101340.81
2023-02-22T23:41:21.114Z,101344.38
2023-02-22T23:43:47.773Z,101352.31
2023-02-22T23:46:18.567Z,101352.25
2023-02-22T23:48:51.022Z,101343.44
2023-02-22T23:51:20.630Z,101342.50
2023-02-22T23:53:48.824Z,101347.75
2023-02-22T23:56:17.888Z,101351.22
2023-02-22T23:58:47.115Z,101350.38
